Аэропорт: Астана. Астана

ICAO: UACC

METAR:
2020-06-01 03:00:00
UACC 010300Z 17004MPS 9999 SCT046CB BKN140 25/15 Q1009 R22/0///70 NOSIG RMK QFE725/0967
METAR:
2020-05-31 23:00:00
TAF UACC 312300Z 0100/0124 23004MPS 9999 SCT030CB BKN100 TX35/0111Z TN18/0124Z TEMPO 0100/0106 5000 -SHRA BKN020CB TEMPO 0106/0115 VRB18MPS 3100 TSRA SQ BKN020CB